createdAt,value
2024-02-05T00:02:26.347Z,10.00
2024-02-05T00:04:52.805Z,8.00
2024-02-05T00:07:20.946Z,6.00
2024-02-05T00:09:48.898Z,7.00
2024-02-05T00:12:16.167Z,8.00
2024-02-05T00:14:42.681Z,8.00
2024-02-05T00:17:10.360Z,8.00
2024-02-05T00:19:37.407Z,8.40
2024-02-05T00:22:04.000Z,6.00
2024-02-05T00:24:30.403Z,7.00
2024-02-05T00:26:56.874Z,7.00
2024-02-05T00:29:23.459Z,8.20
2024-02-05T00:31:50.404Z,7.00
2024-02-05T00:34:16.964Z,8.00
2024-02-05T00:36:43.706Z,9.00
2024-02-05T00:39:11.422Z,8.75
2024-02-05T00:41:38.043Z,8.00
2024-02-05T00:44:04.633Z,8.00
2024-02-05T00:46:31.071Z,9.25
2024-02-05T00:48:57.953Z,9.60
2024-02-05T00:51:24.584Z,8.40
2024-02-05T00:53:51.163Z,9.25
2024-02-05T00:56:18.647Z,8.80
2024-02-05T00:58:45.110Z,8.60
2024-02-05T01:01:11.977Z,8.33
2024-02-05T01:03:39.567Z,9.00
2024-02-05T01:06:08.162Z,8.00
2024-02-05T01:08:34.870Z,8.40
2024-02-05T01:11:01.323Z,9.00
2024-02-05T01:13:27.732Z,9.00
2024-02-05T01:15:54.363Z,7.00
2024-02-05T01:18:21.005Z,8.00
2024-02-05T01:20:48.796Z,8.00
2024-02-05T01:23:15.276Z,8.00
2024-02-05T01:25:42.100Z,7.00
2024-02-05T01:28:08.664Z,9.00
2024-02-05T01:30:35.161Z,9.00
2024-02-05T01:33:02.344Z,10.00
2024-02-05T01:35:28.793Z,8.00
2024-02-05T01:37:55.196Z,9.00
2024-02-05T01:40:21.792Z,8.50
2024-02-05T01:42:48.424Z,9.40
2024-02-05T01:45:14.927Z,11.00
2024-02-05T01:47:42.646Z,10.75
2024-02-05T01:50:11.499Z,10.00
2024-02-05T01:52:42.789Z,11.67
2024-02-05T01:55:10.205Z,12.50
2024-02-05T01:57:36.689Z,10.80
2024-02-05T02:00:04.856Z,12.60
2024-02-05T02:02:31.406Z,11.20
2024-02-05T02:04:59.276Z,12.50
2024-02-05T02:07:26.858Z,12.00
2024-02-05T02:09:53.966Z,11.00
2024-02-05T02:12:20.727Z,9.60
2024-02-05T02:14:47.138Z,11.00
2024-02-05T02:17:13.658Z,11.00
2024-02-05T02:19:47.330Z,11.40
2024-02-05T02:22:20.363Z,9.50
2024-02-05T02:24:47.019Z,10.00
2024-02-05T02:27:13.504Z,10.00
2024-02-05T02:29:40.044Z,9.75
2024-02-05T02:32:22.346Z,10.00
2024-02-05T02:34:49.685Z,8.60
2024-02-05T02:37:17.560Z,11.00
2024-02-05T02:40:06.719Z,9.00
2024-02-05T02:42:33.940Z,10.00
2024-02-05T02:45:04.370Z,12.50
2024-02-05T02:47:31.085Z,9.00
2024-02-05T02:49:57.580Z,11.00
2024-02-05T02:52:24.131Z,9.40
2024-02-05T02:54:50.623Z,9.00
2024-02-05T02:57:17.058Z,11.40
2024-02-05T02:59:43.527Z,9.20
2024-02-05T03:02:10.419Z,12.00
2024-02-05T03:04:37.096Z,11.00
2024-02-05T03:07:03.904Z,11.00
2024-02-05T03:09:30.891Z,10.00
2024-02-05T03:11:57.316Z,10.40
2024-02-05T03:14:26.866Z,11.00
2024-02-05T03:16:54.284Z,12.00
2024-02-05T03:19:20.754Z,11.40
2024-02-05T03:21:47.455Z,12.00
2024-02-05T03:24:13.906Z,10.00
2024-02-05T03:26:40.361Z,10.40
2024-02-05T03:29:06.855Z,11.00
2024-02-05T03:31:33.416Z,11.60
2024-02-05T03:34:00.010Z,11.75
2024-02-05T03:36:26.444Z,10.40
2024-02-05T03:38:54.719Z,11.20
2024-02-05T03:41:21.147Z,9.00
2024-02-05T03:43:49.548Z,10.00
2024-02-05T03:46:16.544Z,13.20
2024-02-05T03:48:56.022Z,10.00
2024-02-05T03:51:22.818Z,12.00
2024-02-05T03:53:49.635Z,13.40
2024-02-05T03:56:21.930Z,11.50
2024-02-05T03:58:51.714Z,14.00
2024-02-05T04:01:18.207Z,10.00
2024-02-05T04:03:45.049Z,12.00
2024-02-05T04:06:11.604Z,11.00
2024-02-05T04:08:38.058Z,10.75
2024-02-05T04:11:04.648Z,11.00
2024-02-05T04:13:31.090Z,11.00
2024-02-05T04:15:57.538Z,10.00
2024-02-05T04:18:24.208Z,10.25
2024-02-05T04:20:53.851Z,11.00
2024-02-05T04:23:20.806Z,11.00
2024-02-05T04:25:47.224Z,9.75
2024-02-05T04:28:13.756Z,9.80
2024-02-05T04:30:42.477Z,10.40
2024-02-05T04:33:09.403Z,9.00
2024-02-05T04:35:36.086Z,9.20
2024-02-05T04:38:02.621Z,10.75
2024-02-05T04:40:29.146Z,9.50
2024-02-05T04:42:55.700Z,10.33
2024-02-05T04:45:22.138Z,9.25
2024-02-05T04:47:48.647Z,10.00
2024-02-05T04:50:15.502Z,10.00
2024-02-05T04:52:42.371Z,8.00
2024-02-05T04:55:09.673Z,9.80
2024-02-05T04:57:36.208Z,10.00
2024-02-05T05:00:03.232Z,8.00
2024-02-05T05:02:29.691Z,7.60
2024-02-05T05:04:56.370Z,10.20
2024-02-05T05:07:24.409Z,10.00
2024-02-05T05:09:51.059Z,9.00
2024-02-05T05:12:19.472Z,9.00
2024-02-05T05:14:46.039Z,10.75
2024-02-05T05:17:12.465Z,9.60
2024-02-05T05:19:38.979Z,10.33
2024-02-05T05:22:05.523Z,10.25
2024-02-05T05:24:31.987Z,9.00
2024-02-05T05:26:59.896Z,9.25
2024-02-05T05:29:26.642Z,9.00
2024-02-05T05:31:53.197Z,8.00
2024-02-05T05:34:20.857Z,9.00
2024-02-05T05:36:47.397Z,10.00
2024-02-05T05:39:16.273Z,11.00
2024-02-05T05:41:42.687Z,9.75
2024-02-05T05:44:09.660Z,10.40
2024-02-05T05:46:36.250Z,9.60
2024-02-05T05:49:02.921Z,10.00
2024-02-05T05:51:29.390Z,11.00
2024-02-05T05:53:55.827Z,9.00
2024-02-05T05:56:22.239Z,11.00
2024-02-05T05:58:53.640Z,10.60
2024-02-05T06:01:20.281Z,11.00
2024-02-05T06:03:46.765Z,9.00
2024-02-05T06:06:13.324Z,11.00
2024-02-05T06:08:39.778Z,10.00
2024-02-05T06:11:06.158Z,8.80
2024-02-05T06:13:32.795Z,11.00
2024-02-05T06:15:59.360Z,10.20
2024-02-05T06:18:25.824Z,10.80
2024-02-05T06:20:52.313Z,10.00
2024-02-05T06:23:18.712Z,11.00
2024-02-05T06:25:45.118Z,10.50
2024-02-05T06:28:14.331Z,16.00
2024-02-05T06:30:44.314Z,22.50
2024-02-05T06:33:10.953Z,12.00
2024-02-05T06:35:37.471Z,14.75
2024-02-05T06:38:03.963Z,11.60
2024-02-05T06:40:30.432Z,13.33
2024-02-05T06:42:56.956Z,14.50
2024-02-05T06:45:23.396Z,14.80
2024-02-05T06:47:49.979Z,12.00
2024-02-05T06:50:16.516Z,15.00
2024-02-05T06:52:43.052Z,13.00
2024-02-05T06:55:09.547Z,22.20
2024-02-05T06:57:37.973Z,18.00
2024-02-05T07:00:07.218Z,15.25
2024-02-05T07:02:33.938Z,10.00
2024-02-05T07:05:02.525Z,10.40
2024-02-05T07:07:29.613Z,11.50
2024-02-05T07:09:56.504Z,14.00
2024-02-05T07:12:23.163Z,14.50
2024-02-05T07:14:52.618Z,13.60
2024-02-05T07:17:19.096Z,11.00
2024-02-05T07:19:45.584Z,9.40
2024-02-05T07:22:13.754Z,10.00
2024-02-05T07:24:43.738Z,12.00
2024-02-05T07:27:10.548Z,12.00
2024-02-05T07:29:40.262Z,12.40
2024-02-05T07:32:06.743Z,10.40
2024-02-05T07:34:33.284Z,13.25
2024-02-05T07:36:59.791Z,14.00
2024-02-05T07:39:26.806Z,14.00
2024-02-05T07:41:53.964Z,13.40
2024-02-05T07:44:20.439Z,15.50
2024-02-05T07:46:46.848Z,14.20
2024-02-05T07:49:13.398Z,13.00
2024-02-05T07:51:47.122Z,15.00
2024-02-05T07:54:13.948Z,14.75
2024-02-05T07:56:41.674Z,14.00
2024-02-05T07:59:08.102Z,13.75
2024-02-05T08:01:34.619Z,12.80
2024-02-05T08:04:01.185Z,12.00
2024-02-05T08:06:29.958Z,14.00
2024-02-05T08:09:06.048Z,15.50
2024-02-05T08:11:32.452Z,14.50
2024-02-05T08:13:59.293Z,13.00
2024-02-05T08:16:25.834Z,11.00
2024-02-05T08:18:52.425Z,10.40
2024-02-05T08:21:19.073Z,13.75
2024-02-05T08:23:48.547Z,10.75
2024-02-05T08:26:15.641Z,14.60
2024-02-05T08:28:42.980Z,12.00
2024-02-05T08:31:09.517Z,10.00
2024-02-05T08:33:36.325Z,12.00
2024-02-05T08:36:03.197Z,19.20
2024-02-05T08:38:29.897Z,13.25
2024-02-05T08:40:57.695Z,22.00
2024-02-05T08:43:24.762Z,12.75
2024-02-05T08:45:54.034Z,10.00
2024-02-05T08:48:20.752Z,10.25
2024-02-05T08:50:47.610Z,9.75
2024-02-05T08:53:14.310Z,10.00
2024-02-05T08:55:40.784Z,9.50
2024-02-05T08:58:07.439Z,9.60
2024-02-05T09:00:33.922Z,11.20
2024-02-05T09:03:00.546Z,10.00
2024-02-05T09:05:33.808Z,9.20
2024-02-05T09:08:07.908Z,10.80
2024-02-05T09:10:36.778Z,8.40
2024-02-05T09:13:04.030Z,9.20
2024-02-05T09:15:30.718Z,10.25
2024-02-05T09:17:58.889Z,7.00
2024-02-05T09:20:25.444Z,8.60
2024-02-05T09:22:51.910Z,10.00
2024-02-05T09:25:18.435Z,7.20
2024-02-05T09:27:45.630Z,11.80
2024-02-05T09:30:12.513Z,9.00
2024-02-05T09:32:39.053Z,9.00
2024-02-05T09:35:05.771Z,9.00
2024-02-05T09:37:32.445Z,8.75
2024-02-05T09:39:59.111Z,8.00
2024-02-05T09:42:25.644Z,7.00
2024-02-05T09:44:52.057Z,8.60
2024-02-05T09:47:19.874Z,7.50
2024-02-05T09:49:49.710Z,7.00
2024-02-05T09:52:17.248Z,7.60
2024-02-05T09:54:44.611Z,8.00
2024-02-05T09:57:12.520Z,8.00
2024-02-05T09:59:41.680Z,8.00
2024-02-05T10:02:09.755Z,8.80
2024-02-05T10:04:48.517Z,7.00
2024-02-05T10:07:16.438Z,6.00
2024-02-05T10:09:43.679Z,9.00
2024-02-05T10:12:13.576Z,10.00
2024-02-05T10:14:43.697Z,8.25
2024-02-05T10:17:11.095Z,8.00
2024-02-05T10:19:39.539Z,10.20
2024-02-05T10:22:06.824Z,7.40
2024-02-05T10:24:35.373Z,7.40
2024-02-05T10:27:01.985Z,7.60
2024-02-05T10:29:28.528Z,8.50
2024-02-05T10:31:59.614Z,8.00
2024-02-05T10:34:26.503Z,9.00
2024-02-05T10:36:53.823Z,8.40
2024-02-05T10:39:23.483Z,8.20
2024-02-05T10:41:50.349Z,9.00
2024-02-05T10:44:25.382Z,10.00
2024-02-05T10:47:01.107Z,11.60
2024-02-05T10:49:27.632Z,12.00
2024-02-05T10:51:55.868Z,11.00
2024-02-05T10:54:23.271Z,9.00
2024-02-05T10:56:50.663Z,11.25
2024-02-05T10:59:17.072Z,10.75
2024-02-05T11:01:46.809Z,9.50
2024-02-05T11:04:17.437Z,11.80
2024-02-05T11:06:45.731Z,11.75
2024-02-05T11:09:12.620Z,11.40
2024-02-05T11:11:39.499Z,11.00
2024-02-05T11:14:09.428Z,10.50
2024-02-05T11:16:38.824Z,12.40
2024-02-05T11:19:06.326Z,13.80
2024-02-05T11:21:35.112Z,12.00
2024-02-05T11:24:01.943Z,10.00
2024-02-05T11:26:28.398Z,12.00
2024-02-05T11:28:56.118Z,10.50
2024-02-05T11:31:28.992Z,11.00
2024-02-05T11:34:00.789Z,8.40
2024-02-05T11:36:28.603Z,9.40
2024-02-05T11:39:02.599Z,9.00
2024-02-05T11:41:30.554Z,10.00
2024-02-05T11:44:07.031Z,8.00
2024-02-05T11:46:37.104Z,8.50
2024-02-05T11:49:04.052Z,6.20
2024-02-05T11:51:32.730Z,7.25
2024-02-05T11:53:59.805Z,7.00
2024-02-05T11:56:26.583Z,4.60
2024-02-05T11:58:53.178Z,5.00
2024-02-05T12:01:20.083Z,6.00
2024-02-05T12:03:50.221Z,6.33
2024-02-05T12:06:17.193Z,5.60
2024-02-05T12:08:44.159Z,5.00
2024-02-05T12:11:12.318Z,5.60
2024-02-05T12:13:40.156Z,4.20
2024-02-05T12:16:10.457Z,7.00
2024-02-05T12:18:37.026Z,7.00
2024-02-05T12:21:05.131Z,6.75
2024-02-05T12:23:31.570Z,4.25
2024-02-05T12:25:58.204Z,6.75
2024-02-05T12:28:25.032Z,5.40
2024-02-05T12:30:58.335Z,6.50
2024-02-05T12:33:27.396Z,5.40
2024-02-05T12:35:58.485Z,5.50
2024-02-05T12:38:27.008Z,5.40
2024-02-05T12:40:56.131Z,5.60
2024-02-05T12:43:25.547Z,5.00
2024-02-05T12:45:53.387Z,5.40
2024-02-05T12:48:23.925Z,5.00
2024-02-05T12:50:54.240Z,5.75
2024-02-05T12:53:21.411Z,3.60
2024-02-05T12:55:48.401Z,5.50
2024-02-05T12:58:14.959Z,6.20
2024-02-05T13:00:41.853Z,5.00
2024-02-05T13:03:09.578Z,6.00
2024-02-05T13:05:36.519Z,6.00
2024-02-05T13:08:03.485Z,5.25
2024-02-05T13:10:30.327Z,4.60
2024-02-05T13:12:57.114Z,5.50
2024-02-05T13:15:23.836Z,6.00
2024-02-05T13:17:50.788Z,6.00
2024-02-05T13:20:17.745Z,9.00
2024-02-05T13:22:44.226Z,7.00
2024-02-05T13:25:11.226Z,5.00
2024-02-05T13:27:37.696Z,5.80
2024-02-05T13:30:04.244Z,6.80
2024-02-05T13:32:30.730Z,6.00
2024-02-05T13:34:57.252Z,6.00
2024-02-05T13:37:23.774Z,6.40
2024-02-05T13:39:50.352Z,5.00
2024-02-05T13:42:16.821Z,8.00
2024-02-05T13:44:43.981Z,6.00
2024-02-05T13:47:10.449Z,8.00
2024-02-05T13:49:38.785Z,6.00
2024-02-05T13:52:05.448Z,6.25
2024-02-05T13:54:31.878Z,6.00
2024-02-05T13:56:58.948Z,8.00
2024-02-05T13:59:25.457Z,5.00
2024-02-05T14:01:55.113Z,5.50
2024-02-05T14:04:23.007Z,6.00
2024-02-05T14:06:49.864Z,7.25
2024-02-05T14:09:16.425Z,5.20
2024-02-05T14:11:42.852Z,7.00
2024-02-05T14:14:09.403Z,6.50
2024-02-05T14:16:35.882Z,5.00
2024-02-05T14:19:02.463Z,8.00
2024-02-05T14:21:28.930Z,7.00
2024-02-05T14:23:55.377Z,6.00
2024-02-05T14:26:21.804Z,7.40
2024-02-05T14:28:48.228Z,6.00
2024-02-05T14:31:14.663Z,6.00
2024-02-05T14:33:44.107Z,5.00
2024-02-05T14:36:13.420Z,4.20
2024-02-05T14:38:39.820Z,5.00
2024-02-05T14:41:06.267Z,5.60
2024-02-05T14:43:32.733Z,6.00
2024-02-05T14:46:00.553Z,5.00
2024-02-05T14:48:28.053Z,8.00
2024-02-05T14:50:56.098Z,8.20
2024-02-05T14:53:22.666Z,8.60
2024-02-05T14:55:49.083Z,10.00
2024-02-05T14:58:16.655Z,9.25
2024-02-05T15:00:43.163Z,11.00
2024-02-05T15:03:09.596Z,11.00
2024-02-05T15:05:36.864Z,11.20
2024-02-05T15:08:05.588Z,12.60
2024-02-05T15:10:32.263Z,11.50
2024-02-05T15:12:58.768Z,11.00
2024-02-05T15:15:27.334Z,7.75
2024-02-05T15:17:56.904Z,5.75
2024-02-05T15:20:23.434Z,4.80
2024-02-05T15:22:50.060Z,6.20
2024-02-05T15:25:16.682Z,6.00
2024-02-05T15:27:46.482Z,4.50
2024-02-05T15:30:13.350Z,6.50
2024-02-05T15:32:39.897Z,8.00
2024-02-05T15:35:11.239Z,8.25
2024-02-05T15:37:38.461Z,5.00
2024-02-05T15:40:06.025Z,5.75
2024-02-05T15:42:33.965Z,6.20
2024-02-05T15:45:00.432Z,7.00
2024-02-05T15:47:26.896Z,7.20
2024-02-05T15:49:53.464Z,7.20
2024-02-05T15:52:20.031Z,6.25
2024-02-05T15:54:46.616Z,7.50
2024-02-05T15:57:13.094Z,6.00
2024-02-05T15:59:39.553Z,6.75
2024-02-05T16:02:06.448Z,5.80
2024-02-05T16:04:33.016Z,7.25
2024-02-05T16:06:59.768Z,8.75
2024-02-05T16:09:26.312Z,9.40
2024-02-05T16:11:52.733Z,7.80
2024-02-05T16:14:19.126Z,11.00
2024-02-05T16:16:45.848Z,12.00
2024-02-05T16:19:18.231Z,15.00
2024-02-05T16:21:47.846Z,15.60
2024-02-05T16:24:14.354Z,12.00
2024-02-05T16:26:40.773Z,15.00
2024-02-05T16:29:07.467Z,16.50
2024-02-05T16:31:33.965Z,12.80
2024-02-05T16:34:01.067Z,12.00
2024-02-05T16:36:28.609Z,12.00
2024-02-05T16:38:55.239Z,15.00
2024-02-05T16:41:21.849Z,15.60
2024-02-05T16:43:48.699Z,16.50
2024-02-05T16:46:15.248Z,14.50
2024-02-05T16:48:42.476Z,18.00
2024-02-05T16:51:10.080Z,14.25
2024-02-05T16:53:37.904Z,14.00
2024-02-05T16:56:04.638Z,19.40
2024-02-05T16:58:31.422Z,19.40
2024-02-05T17:00:59.511Z,17.60
2024-02-05T17:03:27.166Z,18.00
2024-02-05T17:05:53.704Z,19.20
2024-02-05T17:08:20.181Z,18.80
2024-02-05T17:10:46.904Z,19.00
2024-02-05T17:13:13.493Z,15.50
2024-02-05T17:15:41.617Z,14.00
2024-02-05T17:18:09.553Z,15.00
2024-02-05T17:20:36.534Z,13.00
2024-02-05T17:23:03.585Z,12.00
2024-02-05T17:25:30.172Z,10.50
2024-02-05T17:27:56.762Z,15.00
2024-02-05T17:30:24.282Z,13.00
2024-02-05T17:32:51.354Z,13.50
2024-02-05T17:35:18.718Z,10.00
2024-02-05T17:37:45.316Z,12.00
2024-02-05T17:40:12.015Z,19.80
2024-02-05T17:42:38.468Z,16.00
2024-02-05T17:45:06.768Z,19.75
2024-02-05T17:47:33.251Z,23.75
2024-02-05T17:49:59.816Z,21.75
2024-02-05T17:52:28.551Z,22.50
2024-02-05T17:54:55.069Z,22.00
2024-02-05T17:57:21.546Z,19.00
2024-02-05T17:59:47.964Z,20.50
2024-02-05T18:02:16.338Z,22.00
2024-02-05T18:04:43.040Z,22.00
2024-02-05T18:09:54.981Z,23.00
2024-02-05T18:12:21.662Z,22.00
2024-02-05T18:14:48.057Z,25.00
2024-02-05T18:17:14.454Z,23.80
2024-02-05T18:19:41.029Z,27.00
2024-02-05T18:22:07.568Z,27.00
2024-02-05T18:24:42.024Z,28.20
2024-02-05T18:27:15.866Z,30.00
2024-02-05T18:29:42.266Z,32.00
2024-02-05T18:32:08.731Z,29.75
2024-02-05T18:34:35.308Z,27.25
2024-02-05T18:37:01.969Z,28.20
2024-02-05T18:39:30.947Z,29.00
2024-02-05T18:41:57.351Z,29.00
2024-02-05T18:44:23.788Z,30.00
2024-02-05T18:46:50.498Z,31.00
2024-02-05T18:49:18.196Z,29.20
2024-02-05T18:51:44.915Z,28.00
2024-02-05T18:54:11.363Z,26.40
2024-02-05T18:56:39.282Z,27.20
2024-02-05T18:59:05.701Z,27.00
2024-02-05T19:01:32.237Z,24.75
2024-02-05T19:03:58.830Z,24.60
2024-02-05T19:06:29.515Z,28.20
2024-02-05T19:08:56.357Z,30.75
2024-02-05T19:11:22.757Z,31.00
2024-02-05T19:13:49.307Z,31.75
2024-02-05T19:16:16.667Z,31.00
2024-02-05T19:18:45.391Z,27.00
2024-02-05T19:21:11.872Z,29.00
2024-02-05T19:23:38.348Z,27.50
2024-02-05T19:26:05.052Z,26.40
2024-02-05T19:28:31.763Z,27.20
2024-02-05T19:30:59.091Z,28.00
2024-02-05T19:33:27.267Z,27.00
2024-02-05T19:35:53.735Z,29.00
2024-02-05T19:38:20.169Z,30.00
2024-02-05T19:40:46.831Z,30.00
2024-02-05T19:43:13.359Z,31.00
2024-02-05T19:45:39.937Z,31.00
2024-02-05T19:48:07.488Z,29.50
2024-02-05T19:50:35.881Z,30.00
2024-02-05T19:53:02.582Z,31.40
2024-02-05T19:55:31.850Z,31.00
2024-02-05T19:57:58.357Z,31.00
2024-02-05T20:00:24.819Z,31.00
2024-02-05T20:02:51.414Z,32.00
2024-02-05T20:05:18.311Z,33.40
2024-02-05T20:07:44.952Z,31.40
2024-02-05T20:10:11.637Z,33.00
2024-02-05T20:12:38.418Z,31.00
2024-02-05T20:15:06.689Z,30.75
2024-02-05T20:17:33.189Z,31.00
2024-02-05T20:19:59.694Z,31.00
2024-02-05T20:22:26.172Z,30.20
2024-02-05T20:24:52.694Z,31.20
2024-02-05T20:27:19.093Z,30.00
2024-02-05T20:29:45.533Z,31.60
2024-02-05T20:32:12.341Z,31.00
2024-02-05T20:34:38.865Z,30.50
2024-02-05T20:37:05.558Z,33.00
2024-02-05T20:39:32.070Z,34.25
2024-02-05T20:41:58.600Z,36.20
2024-02-05T20:44:26.974Z,37.00
2024-02-05T20:46:53.875Z,35.75
2024-02-05T20:49:20.426Z,37.75
2024-02-05T20:51:47.736Z,34.00
2024-02-05T20:54:14.264Z,34.00
2024-02-05T20:56:40.683Z,36.75
2024-02-05T20:59:07.899Z,34.75
2024-02-05T21:01:38.555Z,37.00
2024-02-05T21:04:06.636Z,34.40
2024-02-05T21:06:33.310Z,36.00
2024-02-05T21:08:59.730Z,34.60
2024-02-05T21:11:28.514Z,35.50
2024-02-05T21:13:55.148Z,37.80
2024-02-05T21:16:21.878Z,37.40
2024-02-05T21:18:49.976Z,35.00
2024-02-05T21:21:17.010Z,34.75
2024-02-05T21:23:43.488Z,36.25
2024-02-05T21:26:10.574Z,35.40
2024-02-05T21:28:37.133Z,35.50
2024-02-05T21:31:03.788Z,33.00
2024-02-05T21:33:30.427Z,33.50
2024-02-05T21:35:56.942Z,34.25
2024-02-05T21:38:24.489Z,33.75
2024-02-05T21:40:51.024Z,34.00
2024-02-05T21:43:17.668Z,34.00
2024-02-05T21:45:44.233Z,34.00
2024-02-05T21:48:11.765Z,35.00
2024-02-05T21:50:38.576Z,34.00
2024-02-05T21:53:05.221Z,33.80
2024-02-05T21:55:34.306Z,38.67
2024-02-05T21:58:01.505Z,35.40
2024-02-05T22:00:28.036Z,36.00
2024-02-05T22:02:54.500Z,38.25
2024-02-05T22:05:21.558Z,39.75
2024-02-05T22:07:48.134Z,40.00
2024-02-05T22:10:14.722Z,40.00
2024-02-05T22:12:41.166Z,38.75
2024-02-05T22:15:07.773Z,39.00
2024-02-05T22:17:34.717Z,42.00
2024-02-05T22:20:01.518Z,39.80
2024-02-05T22:22:28.111Z,35.50
2024-02-05T22:24:54.608Z,38.50
2024-02-05T22:27:21.080Z,34.00
2024-02-05T22:29:47.477Z,35.00
2024-02-05T22:32:15.232Z,35.20
2024-02-05T22:34:41.834Z,34.00
2024-02-05T22:37:08.476Z,34.00
2024-02-05T22:39:35.013Z,33.75
2024-02-05T22:42:01.403Z,35.00
2024-02-05T22:44:31.284Z,34.75
2024-02-05T22:46:57.806Z,39.00
2024-02-05T22:49:25.138Z,40.00
2024-02-05T22:51:53.053Z,37.80
2024-02-05T22:54:22.703Z,42.40
2024-02-05T22:56:49.139Z,42.80
2024-02-05T22:59:15.642Z,40.40
2024-02-05T23:01:42.356Z,38.00
2024-02-05T23:04:09.035Z,40.00
2024-02-05T23:06:35.641Z,37.75
2024-02-05T23:09:02.118Z,37.00
2024-02-05T23:11:28.556Z,37.33
2024-02-05T23:13:55.176Z,34.25
2024-02-05T23:16:22.590Z,35.25
2024-02-05T23:18:49.246Z,39.00
2024-02-05T23:21:19.293Z,34.50
2024-02-05T23:23:47.611Z,34.50
2024-02-05T23:26:17.120Z,35.40
2024-02-05T23:28:43.926Z,37.25
2024-02-05T23:31:10.489Z,36.00
2024-02-05T23:33:37.195Z,35.00
2024-02-05T23:36:05.892Z,35.25
2024-02-05T23:38:32.301Z,35.00
2024-02-05T23:40:58.702Z,36.80
2024-02-05T23:43:25.256Z,43.60
2024-02-05T23:45:51.763Z,45.40
2024-02-05T23:48:18.457Z,44.25
2024-02-05T23:50:46.206Z,40.50
2024-02-05T23:53:13.508Z,35.00
2024-02-05T23:55:40.033Z,37.60
2024-02-05T23:58:06.499Z,35.75
